Aviation Digital Data Service (ADDS)

Output produced by METARs form (0418 UTC 19 August 2019)
found at http://www.aviationweather.gov/metar/data/
 
METAR text: VOBL 190400Z 30006KT 270V340 6000 SCT012 SCT080 23/23 Q1016 NOSIG
Conditions at: VOBL (BENGALURU , IN) observed 0400 UTC 19 August 2019
Temperature: 23.0°C (73°F)
Dewpoint: 23.0°C (73°F) [RH = 100%]
Pressure (altimeter): 30.00 inches Hg (1016.0 mb)
Winds: from the WNW (300 degrees) at 7 MPH (6 knots; 3.1 m/s)
Visibility: 4 miles ( 6 km)
Ceiling: at least 12,000 feet AGL
Clouds: scattered clouds at 1200 feet AGL
scattered clouds at 8000 feet AGL
Weather: no significant weather observed at this time

METAR text: VOBL 190330Z 28005KT 250V320 6000 SCT012 SCT080 23/23 Q1015 NOSIG
Conditions at: VOBL (BENGALURU , IN) observed 0330 UTC 19 August 2019
Temperature: 23.0°C (73°F)
Dewpoint: 23.0°C (73°F) [RH = 100%]
Pressure (altimeter): 29.97 inches Hg (1015.0 mb)
Winds: from the W (280 degrees) at 6 MPH (5 knots; 2.6 m/s)
Visibility: 4 miles ( 6 km)
Ceiling: at least 12,000 feet AGL
Clouds: scattered clouds at 1200 feet AGL
scattered clouds at 8000 feet AGL
Weather: no significant weather observed at this time

METAR text: VOBL 190300Z 30003KT 260V350 6000 SCT012 SCT080 22/22 Q1015 NOSIG
Conditions at: VOBL (BENGALURU , IN) observed 0300 UTC 19 August 2019
Temperature: 22.0°C (72°F)
Dewpoint: 22.0°C (72°F) [RH = 100%]
Pressure (altimeter): 29.97 inches Hg (1015.0 mb)
Winds: from the WNW (300 degrees) at 3 MPH (3 knots; 1.5 m/s)
Visibility: 4 miles ( 6 km)
Ceiling: at least 12,000 feet AGL
Clouds: scattered clouds at 1200 feet AGL
scattered clouds at 8000 feet AGL
Weather: no significant weather observed at this time

METAR text: VOBL 190230Z 28004KT 6000 SCT012 SCT080 21/21 Q1015 NOSIG
Conditions at: VOBL (BENGALURU , IN) observed 0230 UTC 19 August 2019
Temperature: 21.0°C (70°F)
Dewpoint: 21.0°C (70°F) [RH = 100%]
Pressure (altimeter): 29.97 inches Hg (1015.0 mb)
Winds: from the W (280 degrees) at 5 MPH (4 knots; 2.1 m/s)
Visibility: 4 miles ( 6 km)
Ceiling: at least 12,000 feet AGL
Clouds: scattered clouds at 1200 feet AGL
scattered clouds at 8000 feet AGL
Weather: no significant weather observed at this time

METAR text: VOBL 190200Z 29005KT 6000 SCT008 BKN080 21/21 Q1015 NOSIG
Conditions at: VOBL (BENGALURU , IN) observed 0200 UTC 19 August 2019
Temperature: 21.0°C (70°F)
Dewpoint: 21.0°C (70°F) [RH = 100%]
Pressure (altimeter): 29.97 inches Hg (1015.0 mb)
Winds: from the WNW (290 degrees) at 6 MPH (5 knots; 2.6 m/s)
Visibility: 4 miles ( 6 km)
Ceiling: 8000 feet AGL
Clouds: scattered clouds at 800 feet AGL
broken clouds at 8000 feet AGL
Weather: no significant weather observed at this time

METAR text: VOBL 190130Z VRB02KT 6000 SCT008 BKN080 21/21 Q1014 NOSIG
Conditions at: VOBL (BENGALURU , IN) observed 0130 UTC 19 August 2019
Temperature: 21.0°C (70°F)
Dewpoint: 21.0°C (70°F) [RH = 100%]
Pressure (altimeter): 29.94 inches Hg (1014.0 mb)
Winds: variable direction winds at 2 MPH (2 knots; 1.0 m/s)
Visibility: 4 miles ( 6 km)
Ceiling: 8000 feet AGL
Clouds: scattered clouds at 800 feet AGL
broken clouds at 8000 feet AGL
Weather: no significant weather observed at this time

METAR text: VOBL 190100Z VRB02KT 6000 SCT008 BKN080 21/21 Q1014 NOSIG
Conditions at: VOBL (BENGALURU , IN) observed 0100 UTC 19 August 2019
Temperature: 21.0°C (70°F)
Dewpoint: 21.0°C (70°F) [RH = 100%]
Pressure (altimeter): 29.94 inches Hg (1014.0 mb)
Winds: variable direction winds at 2 MPH (2 knots; 1.0 m/s)
Visibility: 4 miles ( 6 km)
Ceiling: 8000 feet AGL
Clouds: scattered clouds at 800 feet AGL
broken clouds at 8000 feet AGL
Weather: no significant weather observed at this time

METAR text: VOBL 190030Z 28004KT 6000 SCT008 BKN080 21/21 Q1014 NOSIG
Conditions at: VOBL (BENGALURU , IN) observed 0030 UTC 19 August 2019
Temperature: 21.0°C (70°F)
Dewpoint: 21.0°C (70°F) [RH = 100%]
Pressure (altimeter): 29.94 inches Hg (1014.0 mb)
Winds: from the W (280 degrees) at 5 MPH (4 knots; 2.1 m/s)
Visibility: 4 miles ( 6 km)
Ceiling: 8000 feet AGL
Clouds: scattered clouds at 800 feet AGL
broken clouds at 8000 feet AGL
Weather: no significant weather observed at this time

METAR text: VOBL 190000Z 27004KT 6000 SCT008 BKN080 21/21 Q1014 NOSIG
Conditions at: VOBL (BENGALURU , IN) observed 0000 UTC 19 August 2019
Temperature: 21.0°C (70°F)
Dewpoint: 21.0°C (70°F) [RH = 100%]
Pressure (altimeter): 29.94 inches Hg (1014.0 mb)
Winds: from the W (270 degrees) at 5 MPH (4 knots; 2.1 m/s)
Visibility: 4 miles ( 6 km)
Ceiling: 8000 feet AGL
Clouds: scattered clouds at 800 feet AGL
broken clouds at 8000 feet AGL
Weather: no significant weather observed at this time

METAR text: VOBL 182330Z VRB02KT 6000 SCT008 BKN080 21/21 Q1014 NOSIG
Conditions at: VOBL (BENGALURU , IN) observed 2330 UTC 18 August 2019
Temperature: 21.0°C (70°F)
Dewpoint: 21.0°C (70°F) [RH = 100%]
Pressure (altimeter): 29.94 inches Hg (1014.0 mb)
Winds: variable direction winds at 2 MPH (2 knots; 1.0 m/s)
Visibility: 4 miles ( 6 km)
Ceiling: 8000 feet AGL
Clouds: scattered clouds at 800 feet AGL
broken clouds at 8000 feet AGL
Weather: no significant weather observed at this time

METAR text: VOBL 182300Z 28006KT 6000 SCT008 BKN080 21/21 Q1013 NOSIG
Conditions at: VOBL (BENGALURU , IN) observed 2300 UTC 18 August 2019
Temperature: 21.0°C (70°F)
Dewpoint: 21.0°C (70°F) [RH = 100%]
Pressure (altimeter): 29.91 inches Hg (1013.0 mb)
Winds: from the W (280 degrees) at 7 MPH (6 knots; 3.1 m/s)
Visibility: 4 miles ( 6 km)
Ceiling: 8000 feet AGL
Clouds: scattered clouds at 800 feet AGL
broken clouds at 8000 feet AGL
Weather: no significant weather observed at this time

METAR text: VOBL 182230Z 28006KT 6000 SCT008 BKN080 21/21 Q1013 NOSIG
Conditions at: VOBL (BENGALURU , IN) observed 2230 UTC 18 August 2019
Temperature: 21.0°C (70°F)
Dewpoint: 21.0°C (70°F) [RH = 100%]
Pressure (altimeter): 29.91 inches Hg (1013.0 mb)
Winds: from the W (280 degrees) at 7 MPH (6 knots; 3.1 m/s)
Visibility: 4 miles ( 6 km)
Ceiling: 8000 feet AGL
Clouds: scattered clouds at 800 feet AGL
broken clouds at 8000 feet AGL
Weather: no significant weather observed at this time

METAR text: VOBL 182200Z 28005KT 6000 SCT008 BKN080 21/21 Q1014 NOSIG
Conditions at: VOBL (BENGALURU , IN) observed 2200 UTC 18 August 2019
Temperature: 21.0°C (70°F)
Dewpoint: 21.0°C (70°F) [RH = 100%]
Pressure (altimeter): 29.94 inches Hg (1014.0 mb)
Winds: from the W (280 degrees) at 6 MPH (5 knots; 2.6 m/s)
Visibility: 4 miles ( 6 km)
Ceiling: 8000 feet AGL
Clouds: scattered clouds at 800 feet AGL
broken clouds at 8000 feet AGL
Weather: no significant weather observed at this time

METAR text: VOBL 182130Z 28005KT 4000 -DZ SCT008 BKN080 21/21 Q1014 NOSIG
Conditions at: VOBL (BENGALURU , IN) observed 2130 UTC 18 August 2019
Temperature: 21.0°C (70°F)
Dewpoint: 21.0°C (70°F) [RH = 100%]
Pressure (altimeter): 29.94 inches Hg (1014.0 mb)
Winds: from the W (280 degrees) at 6 MPH (5 knots; 2.6 m/s)
Visibility: 2.49 miles (4.01 km)
Ceiling: 8000 feet AGL
Clouds: scattered clouds at 800 feet AGL
broken clouds at 8000 feet AGL
Weather: -DZ  (light drizzle)

METAR text: VOBL 182100Z 28005KT 6000 -DZ SCT008 BKN080 21/21 Q1014 NOSIG
Conditions at: VOBL (BENGALURU , IN) observed 2100 UTC 18 August 2019
Temperature: 21.0°C (70°F)
Dewpoint: 21.0°C (70°F) [RH = 100%]
Pressure (altimeter): 29.94 inches Hg (1014.0 mb)
Winds: from the W (280 degrees) at 6 MPH (5 knots; 2.6 m/s)
Visibility: 4 miles ( 6 km)
Ceiling: 8000 feet AGL
Clouds: scattered clouds at 800 feet AGL
broken clouds at 8000 feet AGL
Weather: -DZ  (light drizzle)

METAR text: VOBL 182030Z 28006KT 6000 SCT010 BKN080 21/21 Q1014 NOSIG
Conditions at: VOBL (BENGALURU , IN) observed 2030 UTC 18 August 2019
Temperature: 21.0°C (70°F)
Dewpoint: 21.0°C (70°F) [RH = 100%]
Pressure (altimeter): 29.94 inches Hg (1014.0 mb)
Winds: from the W (280 degrees) at 7 MPH (6 knots; 3.1 m/s)
Visibility: 4 miles ( 6 km)
Ceiling: 8000 feet AGL
Clouds: scattered clouds at 1000 feet AGL
broken clouds at 8000 feet AGL
Weather: no significant weather observed at this time

METAR text: VOBL 182000Z 28008KT 6000 SCT010 BKN080 21/21 Q1014 NOSIG
Conditions at: VOBL (BENGALURU , IN) observed 2000 UTC 18 August 2019
Temperature: 21.0°C (70°F)
Dewpoint: 21.0°C (70°F) [RH = 100%]
Pressure (altimeter): 29.94 inches Hg (1014.0 mb)
Winds: from the W (280 degrees) at 9 MPH (8 knots; 4.1 m/s)
Visibility: 4 miles ( 6 km)
Ceiling: 8000 feet AGL
Clouds: scattered clouds at 1000 feet AGL
broken clouds at 8000 feet AGL
Weather: no significant weather observed at this time

METAR text: VOBL 181930Z 28008KT 6000 SCT010 BKN080 21/21 Q1015 NOSIG
Conditions at: VOBL (BENGALURU , IN) observed 1930 UTC 18 August 2019
Temperature: 21.0°C (70°F)
Dewpoint: 21.0°C (70°F) [RH = 100%]
Pressure (altimeter): 29.97 inches Hg (1015.0 mb)
Winds: from the W (280 degrees) at 9 MPH (8 knots; 4.1 m/s)
Visibility: 4 miles ( 6 km)
Ceiling: 8000 feet AGL
Clouds: scattered clouds at 1000 feet AGL
broken clouds at 8000 feet AGL
Weather: no significant weather observed at this time

METAR text: VOBL 181900Z 27008KT 6000 SCT010 BKN080 21/21 Q1015 NOSIG
Conditions at: VOBL (BENGALURU , IN) observed 1900 UTC 18 August 2019
Temperature: 21.0°C (70°F)
Dewpoint: 21.0°C (70°F) [RH = 100%]
Pressure (altimeter): 29.97 inches Hg (1015.0 mb)
Winds: from the W (270 degrees) at 9 MPH (8 knots; 4.1 m/s)
Visibility: 4 miles ( 6 km)
Ceiling: 8000 feet AGL
Clouds: scattered clouds at 1000 feet AGL
broken clouds at 8000 feet AGL
Weather: no significant weather observed at this time

METAR text: VOBL 181830Z 26008KT 6000 SCT010 BKN080 22/22 Q1016 NOSIG
Conditions at: VOBL (BENGALURU , IN) observed 1830 UTC 18 August 2019
Temperature: 22.0°C (72°F)
Dewpoint: 22.0°C (72°F) [RH = 100%]
Pressure (altimeter): 30.00 inches Hg (1016.0 mb)
Winds: from the W (260 degrees) at 9 MPH (8 knots; 4.1 m/s)
Visibility: 4 miles ( 6 km)
Ceiling: 8000 feet AGL
Clouds: scattered clouds at 1000 feet AGL
broken clouds at 8000 feet AGL
Weather: no significant weather observed at this time

METAR text: VOBL 181800Z 26008KT 6000 SCT010 BKN080 22/22 Q1016 NOSIG
Conditions at: VOBL (BENGALURU , IN) observed 1800 UTC 18 August 2019
Temperature: 22.0°C (72°F)
Dewpoint: 22.0°C (72°F) [RH = 100%]
Pressure (altimeter): 30.00 inches Hg (1016.0 mb)
Winds: from the W (260 degrees) at 9 MPH (8 knots; 4.1 m/s)
Visibility: 4 miles ( 6 km)
Ceiling: 8000 feet AGL
Clouds: scattered clouds at 1000 feet AGL
broken clouds at 8000 feet AGL
Weather: no significant weather observed at this time

METAR text: VOBL 181730Z 26005KT 6000 SCT010 BKN080 22/22 Q1016 NOSIG
Conditions at: VOBL (BENGALURU , IN) observed 1730 UTC 18 August 2019
Temperature: 22.0°C (72°F)
Dewpoint: 22.0°C (72°F) [RH = 100%]
Pressure (altimeter): 30.00 inches Hg (1016.0 mb)
Winds: from the W (260 degrees) at 6 MPH (5 knots; 2.6 m/s)
Visibility: 4 miles ( 6 km)
Ceiling: 8000 feet AGL
Clouds: scattered clouds at 1000 feet AGL
broken clouds at 8000 feet AGL
Weather: no significant weather observed at this time

METAR text: VOBL 181700Z 25008KT 6000 SCT010 BKN080 22/22 Q1016 NOSIG
Conditions at: VOBL (BENGALURU , IN) observed 1700 UTC 18 August 2019
Temperature: 22.0°C (72°F)
Dewpoint: 22.0°C (72°F) [RH = 100%]
Pressure (altimeter): 30.00 inches Hg (1016.0 mb)
Winds: from the WSW (250 degrees) at 9 MPH (8 knots; 4.1 m/s)
Visibility: 4 miles ( 6 km)
Ceiling: 8000 feet AGL
Clouds: scattered clouds at 1000 feet AGL
broken clouds at 8000 feet AGL
Weather: no significant weather observed at this time

METAR text: VOBL 181630Z 25007KT 6000 SCT010 BKN080 22/22 Q1016 NOSIG
Conditions at: VOBL (BENGALURU , IN) observed 1630 UTC 18 August 2019
Temperature: 22.0°C (72°F)
Dewpoint: 22.0°C (72°F) [RH = 100%]
Pressure (altimeter): 30.00 inches Hg (1016.0 mb)
Winds: from the WSW (250 degrees) at 8 MPH (7 knots; 3.6 m/s)
Visibility: 4 miles ( 6 km)
Ceiling: 8000 feet AGL
Clouds: scattered clouds at 1000 feet AGL
broken clouds at 8000 feet AGL
Weather: no significant weather observed at this time

METAR text: VOBL 181600Z 28003KT 260V320 6000 -DZ SCT010 BKN080 23/23 Q1015 NOSIG
Conditions at: VOBL (BENGALURU , IN) observed 1600 UTC 18 August 2019
Temperature: 23.0°C (73°F)
Dewpoint: 23.0°C (73°F) [RH = 100%]
Pressure (altimeter): 29.97 inches Hg (1015.0 mb)
Winds: from the W (280 degrees) at 3 MPH (3 knots; 1.5 m/s)
Visibility: 4 miles ( 6 km)
Ceiling: 8000 feet AGL
Clouds: scattered clouds at 1000 feet AGL
broken clouds at 8000 feet AGL
Weather: -DZ  (light drizzle)

METAR text: VOBL 181530Z VRB02KT 6000 -DZ SCT010 BKN080 23/23 Q1015 NOSIG
Conditions at: VOBL (BENGALURU , IN) observed 1530 UTC 18 August 2019
Temperature: 23.0°C (73°F)
Dewpoint: 23.0°C (73°F) [RH = 100%]
Pressure (altimeter): 29.97 inches Hg (1015.0 mb)
Winds: variable direction winds at 2 MPH (2 knots; 1.0 m/s)
Visibility: 4 miles ( 6 km)
Ceiling: 8000 feet AGL
Clouds: scattered clouds at 1000 feet AGL
broken clouds at 8000 feet AGL
Weather: -DZ  (light drizzle)

METAR text: VOBL 181500Z 27005KT 6000 SCT012 BKN080 23/23 Q1014 NOSIG
Conditions at: VOBL (BENGALURU , IN) observed 1500 UTC 18 August 2019
Temperature: 23.0°C (73°F)
Dewpoint: 23.0°C (73°F) [RH = 100%]
Pressure (altimeter): 29.94 inches Hg (1014.0 mb)
Winds: from the W (270 degrees) at 6 MPH (5 knots; 2.6 m/s)
Visibility: 4 miles ( 6 km)
Ceiling: 8000 feet AGL
Clouds: scattered clouds at 1200 feet AGL
broken clouds at 8000 feet AGL
Weather: no significant weather observed at this time

METAR text: VOBL 181430Z 00000KT 6000 SCT012 BKN080 23/23 Q1014 NOSIG
Conditions at: VOBL (BENGALURU , IN) observed 1430 UTC 18 August 2019
Temperature: 23.0°C (73°F)
Dewpoint: 23.0°C (73°F) [RH = 100%]
Pressure (altimeter): 29.94 inches Hg (1014.0 mb)
Winds: calm
Visibility: 4 miles ( 6 km)
Ceiling: 8000 feet AGL
Clouds: scattered clouds at 1200 feet AGL
broken clouds at 8000 feet AGL
Weather: no significant weather observed at this time

METAR text: VOBL 181400Z VRB02KT 6000 SCT012 BKN080 23/23 Q1013 NOSIG
Conditions at: VOBL (BENGALURU , IN) observed 1400 UTC 18 August 2019
Temperature: 23.0°C (73°F)
Dewpoint: 23.0°C (73°F) [RH = 100%]
Pressure (altimeter): 29.91 inches Hg (1013.0 mb)
Winds: variable direction winds at 2 MPH (2 knots; 1.0 m/s)
Visibility: 4 miles ( 6 km)
Ceiling: 8000 feet AGL
Clouds: scattered clouds at 1200 feet AGL
broken clouds at 8000 feet AGL
Weather: no significant weather observed at this time

METAR text: VOBL 181330Z 29004KT 6000 SCT012 BKN080 23/23 Q1012 NOSIG
Conditions at: VOBL (BENGALURU , IN) observed 1330 UTC 18 August 2019
Temperature: 23.0°C (73°F)
Dewpoint: 23.0°C (73°F) [RH = 100%]
Pressure (altimeter): 29.88 inches Hg (1012.0 mb)
Winds: from the WNW (290 degrees) at 5 MPH (4 knots; 2.1 m/s)
Visibility: 4 miles ( 6 km)
Ceiling: 8000 feet AGL
Clouds: scattered clouds at 1200 feet AGL
broken clouds at 8000 feet AGL
Weather: no significant weather observed at this time

METAR text: VOBL 181300Z 30004KT 6000 SCT012 BKN080 23/23 Q1012 NOSIG
Conditions at: VOBL (BENGALURU , IN) observed 1300 UTC 18 August 2019
Temperature: 23.0°C (73°F)
Dewpoint: 23.0°C (73°F) [RH = 100%]
Pressure (altimeter): 29.88 inches Hg (1012.0 mb)
Winds: from the WNW (300 degrees) at 5 MPH (4 knots; 2.1 m/s)
Visibility: 4 miles ( 6 km)
Ceiling: 8000 feet AGL
Clouds: scattered clouds at 1200 feet AGL
broken clouds at 8000 feet AGL
Weather: no significant weather observed at this time

METAR text: VOBL 181230Z 31005KT 6000 SCT012 BKN080 24/23 Q1012 NOSIG
Conditions at: VOBL (BENGALURU , IN) observed 1230 UTC 18 August 2019
Temperature: 24.0°C (75°F)
Dewpoint: 23.0°C (73°F) [RH = 94%]
Pressure (altimeter): 29.88 inches Hg (1012.0 mb)
Winds: from the NW (310 degrees) at 6 MPH (5 knots; 2.6 m/s)
Visibility: 4 miles ( 6 km)
Ceiling: 8000 feet AGL
Clouds: scattered clouds at 1200 feet AGL
broken clouds at 8000 feet AGL
Weather: no significant weather observed at this time

METAR text: VOBL 181200Z 32004KT 280V360 6000 SCT012 BKN080 24/22 Q1012 NOSIG
Conditions at: VOBL (BENGALURU , IN) observed 1200 UTC 18 August 2019
Temperature: 24.0°C (75°F)
Dewpoint: 22.0°C (72°F) [RH = 89%]
Pressure (altimeter): 29.88 inches Hg (1012.0 mb)
Winds: from the NW (320 degrees) at 5 MPH (4 knots; 2.1 m/s)
Visibility: 4 miles ( 6 km)
Ceiling: 8000 feet AGL
Clouds: scattered clouds at 1200 feet AGL
broken clouds at 8000 feet AGL
Weather: no significant weather observed at this time

METAR text: VOBL 181130Z VRB04KT 6000 SCT010 SCT012 BKN080 24/23 Q1012 NOSIG
Conditions at: VOBL (BENGALURU , IN) observed 1130 UTC 18 August 2019
Temperature: 24.0°C (75°F)
Dewpoint: 23.0°C (73°F) [RH = 94%]
Pressure (altimeter): 29.88 inches Hg (1012.0 mb)
Winds: variable direction winds at 5 MPH (4 knots; 2.1 m/s)
Visibility: 4 miles ( 6 km)
Ceiling: 8000 feet AGL
Clouds: scattered clouds at 1000 feet AGL
scattered clouds at 1200 feet AGL
broken clouds at 8000 feet AGL
Weather: no significant weather observed at this time

METAR text: VOBL 181100Z VRB04KT 6000 SCT010 SCT012 FEW025CB BKN080 24/22 Q1012 NOSIG
Conditions at: VOBL (BENGALURU , IN) observed 1100 UTC 18 August 2019
Temperature: 24.0°C (75°F)
Dewpoint: 22.0°C (72°F) [RH = 89%]
Pressure (altimeter): 29.88 inches Hg (1012.0 mb)
Winds: variable direction winds at 5 MPH (4 knots; 2.1 m/s)
Visibility: 4 miles ( 6 km)
Ceiling: 8000 feet AGL
Clouds: scattered clouds at 1000 feet AGL
scattered clouds at 1200 feet AGL
few clouds at 2500 feet AGL
broken clouds at 8000 feet AGL
Weather: no significant weather observed at this time

METAR text: VOBL 181030Z 33005KT 270V060 6000 SCT010 SCT012 FEW025CB BKN080 24/23 Q1012 NOSIG
Conditions at: VOBL (BENGALURU , IN) observed 1030 UTC 18 August 2019
Temperature: 24.0°C (75°F)
Dewpoint: 23.0°C (73°F) [RH = 94%]
Pressure (altimeter): 29.88 inches Hg (1012.0 mb)
Winds: from the NNW (330 degrees) at 6 MPH (5 knots; 2.6 m/s)
Visibility: 4 miles ( 6 km)
Ceiling: 8000 feet AGL
Clouds: scattered clouds at 1000 feet AGL
scattered clouds at 1200 feet AGL
few clouds at 2500 feet AGL
broken clouds at 8000 feet AGL
Weather: no significant weather observed at this time

METAR text: VOBL 181000Z 30005KT 6000 SCT010 SCT012 FEW025CB BKN080 24/23 Q1012 NOSIG
Conditions at: VOBL (BENGALURU , IN) observed 1000 UTC 18 August 2019
Temperature: 24.0°C (75°F)
Dewpoint: 23.0°C (73°F) [RH = 94%]
Pressure (altimeter): 29.88 inches Hg (1012.0 mb)
Winds: from the WNW (300 degrees) at 6 MPH (5 knots; 2.6 m/s)
Visibility: 4 miles ( 6 km)
Ceiling: 8000 feet AGL
Clouds: scattered clouds at 1000 feet AGL
scattered clouds at 1200 feet AGL
few clouds at 2500 feet AGL
broken clouds at 8000 feet AGL
Weather: no significant weather observed at this time

METAR text: VOBL 180930Z VRB05KT 6000 SCT010 SCT012 FEW025CB BKN080 24/23 Q1012 NOSIG
Conditions at: VOBL (BENGALURU , IN) observed 0930 UTC 18 August 2019
Temperature: 24.0°C (75°F)
Dewpoint: 23.0°C (73°F) [RH = 94%]
Pressure (altimeter): 29.88 inches Hg (1012.0 mb)
Winds: variable direction winds at 6 MPH (5 knots; 2.6 m/s)
Visibility: 4 miles ( 6 km)
Ceiling: 8000 feet AGL
Clouds: scattered clouds at 1000 feet AGL
scattered clouds at 1200 feet AGL
few clouds at 2500 feet AGL
broken clouds at 8000 feet AGL
Weather: no significant weather observed at this time

METAR text: VOBL 180900Z VRB05KT 6000 -DZ SCT010 SCT012 FEW025CB BKN080 23/23 Q1013 NOSIG
Conditions at: VOBL (BENGALURU , IN) observed 0900 UTC 18 August 2019
Temperature: 23.0°C (73°F)
Dewpoint: 23.0°C (73°F) [RH = 100%]
Pressure (altimeter): 29.91 inches Hg (1013.0 mb)
Winds: variable direction winds at 6 MPH (5 knots; 2.6 m/s)
Visibility: 4 miles ( 6 km)
Ceiling: 8000 feet AGL
Clouds: scattered clouds at 1000 feet AGL
scattered clouds at 1200 feet AGL
few clouds at 2500 feet AGL
broken clouds at 8000 feet AGL
Weather: -DZ  (light drizzle)

METAR text: VOBL 180830Z VRB05KT 6000 DZ SCT010 SCT012 FEW025CB BKN080 23/23 Q1013 NOSIG
Conditions at: VOBL (BENGALURU , IN) observed 0830 UTC 18 August 2019
Temperature: 23.0°C (73°F)
Dewpoint: 23.0°C (73°F) [RH = 100%]
Pressure (altimeter): 29.91 inches Hg (1013.0 mb)
Winds: variable direction winds at 6 MPH (5 knots; 2.6 m/s)
Visibility: 4 miles ( 6 km)
Ceiling: 8000 feet AGL
Clouds: scattered clouds at 1000 feet AGL
scattered clouds at 1200 feet AGL
few clouds at 2500 feet AGL
broken clouds at 8000 feet AGL
Weather: DZ  (moderate drizzle)

METAR text: VOBL 180800Z 33004KT 290V020 6000 DZ SCT010 SCT012 FEW025CB BKN080 23/23 Q1014 NOSIG
Conditions at: VOBL (BENGALURU , IN) observed 0800 UTC 18 August 2019
Temperature: 23.0°C (73°F)
Dewpoint: 23.0°C (73°F) [RH = 100%]
Pressure (altimeter): 29.94 inches Hg (1014.0 mb)
Winds: from the NNW (330 degrees) at 5 MPH (4 knots; 2.1 m/s)
Visibility: 4 miles ( 6 km)
Ceiling: 8000 feet AGL
Clouds: scattered clouds at 1000 feet AGL
scattered clouds at 1200 feet AGL
few clouds at 2500 feet AGL
broken clouds at 8000 feet AGL
Weather: DZ  (moderate drizzle)

METAR text: VOBL 180730Z 33005KT 280V020 6000 DZ SCT010 SCT012 FEW025CB BKN080 23/23 Q1014 NOSIG
Conditions at: VOBL (BENGALURU , IN) observed 0730 UTC 18 August 2019
Temperature: 23.0°C (73°F)
Dewpoint: 23.0°C (73°F) [RH = 100%]
Pressure (altimeter): 29.94 inches Hg (1014.0 mb)
Winds: from the NNW (330 degrees) at 6 MPH (5 knots; 2.6 m/s)
Visibility: 4 miles ( 6 km)
Ceiling: 8000 feet AGL
Clouds: scattered clouds at 1000 feet AGL
scattered clouds at 1200 feet AGL
few clouds at 2500 feet AGL
broken clouds at 8000 feet AGL
Weather: DZ  (moderate drizzle)

METAR text: VOBL 180700Z 29006KT 260V320 6000 SCT010 SCT012 FEW025CB BKN080 24/23 Q1014 NOSIG
Conditions at: VOBL (BENGALURU , IN) observed 0700 UTC 18 August 2019
Temperature: 24.0°C (75°F)
Dewpoint: 23.0°C (73°F) [RH = 94%]
Pressure (altimeter): 29.94 inches Hg (1014.0 mb)
Winds: from the WNW (290 degrees) at 7 MPH (6 knots; 3.1 m/s)
Visibility: 4 miles ( 6 km)
Ceiling: 8000 feet AGL
Clouds: scattered clouds at 1000 feet AGL
scattered clouds at 1200 feet AGL
few clouds at 2500 feet AGL
broken clouds at 8000 feet AGL
Weather: no significant weather observed at this time

METAR text: VOBL 180630Z 31006KT 6000 SCT010 SCT012 FEW025CB BKN080 24/23 Q1015 NOSIG
Conditions at: VOBL (BENGALURU , IN) observed 0630 UTC 18 August 2019
Temperature: 24.0°C (75°F)
Dewpoint: 23.0°C (73°F) [RH = 94%]
Pressure (altimeter): 29.97 inches Hg (1015.0 mb)
Winds: from the NW (310 degrees) at 7 MPH (6 knots; 3.1 m/s)
Visibility: 4 miles ( 6 km)
Ceiling: 8000 feet AGL
Clouds: scattered clouds at 1000 feet AGL
scattered clouds at 1200 feet AGL
few clouds at 2500 feet AGL
broken clouds at 8000 feet AGL
Weather: no significant weather observed at this time

METAR text: VOBL 180600Z 28005KT 250V310 6000 SCT010 SCT012 FEW025CB BKN080 24/23 Q1015 NOSIG
Conditions at: VOBL (BENGALURU , IN) observed 0600 UTC 18 August 2019
Temperature: 24.0°C (75°F)
Dewpoint: 23.0°C (73°F) [RH = 94%]
Pressure (altimeter): 29.97 inches Hg (1015.0 mb)
Winds: from the W (280 degrees) at 6 MPH (5 knots; 2.6 m/s)
Visibility: 4 miles ( 6 km)
Ceiling: 8000 feet AGL
Clouds: scattered clouds at 1000 feet AGL
scattered clouds at 1200 feet AGL
few clouds at 2500 feet AGL
broken clouds at 8000 feet AGL
Weather: no significant weather observed at this time

METAR text: VOBL 180530Z 27007KT 6000 SCT010 SCT012 FEW025CB BKN080 23/23 Q1015 NOSIG
Conditions at: VOBL (BENGALURU , IN) observed 0530 UTC 18 August 2019
Temperature: 23.0°C (73°F)
Dewpoint: 23.0°C (73°F) [RH = 100%]
Pressure (altimeter): 29.97 inches Hg (1015.0 mb)
Winds: from the W (270 degrees) at 8 MPH (7 knots; 3.6 m/s)
Visibility: 4 miles ( 6 km)
Ceiling: 8000 feet AGL
Clouds: scattered clouds at 1000 feet AGL
scattered clouds at 1200 feet AGL
few clouds at 2500 feet AGL
broken clouds at 8000 feet AGL
Weather: no significant weather observed at this time

METAR text: VOBL 180500Z 28007KT 6000 SCT010 SCT012 FEW025CB BKN080 23/23 Q1015 NOSIG
Conditions at: VOBL (BENGALURU , IN) observed 0500 UTC 18 August 2019
Temperature: 23.0°C (73°F)
Dewpoint: 23.0°C (73°F) [RH = 100%]
Pressure (altimeter): 29.97 inches Hg (1015.0 mb)
Winds: from the W (280 degrees) at 8 MPH (7 knots; 3.6 m/s)
Visibility: 4 miles ( 6 km)
Ceiling: 8000 feet AGL
Clouds: scattered clouds at 1000 feet AGL
scattered clouds at 1200 feet AGL
few clouds at 2500 feet AGL
broken clouds at 8000 feet AGL
Weather: no significant weather observed at this time

METAR text: VOBL 180430Z 28010KT 4000 BR SCT010 SCT012 FEW025CB BKN080 23/23 Q1015 NOSIG
Conditions at: VOBL (BENGALURU , IN) observed 0430 UTC 18 August 2019
Temperature: 23.0°C (73°F)
Dewpoint: 23.0°C (73°F) [RH = 100%]
Pressure (altimeter): 29.97 inches Hg (1015.0 mb)
Winds: from the W (280 degrees) at 12 MPH (10 knots; 5.1 m/s)
Visibility: 2.49 miles (4.01 km)
Ceiling: 8000 feet AGL
Clouds: scattered clouds at 1000 feet AGL
scattered clouds at 1200 feet AGL
few clouds at 2500 feet AGL
broken clouds at 8000 feet AGL
Weather: BR  (mist)

METAR text: VOBL 180400Z 26010KT 4000 BR SCT010 SCT012 FEW025CB BKN080 23/23 Q1015 NOSIG
Conditions at: VOBL (BENGALURU , IN) observed 0400 UTC 18 August 2019
Temperature: 23.0°C (73°F)
Dewpoint: 23.0°C (73°F) [RH = 100%]
Pressure (altimeter): 29.97 inches Hg (1015.0 mb)
Winds: from the W (260 degrees) at 12 MPH (10 knots; 5.1 m/s)
Visibility: 2.49 miles (4.01 km)
Ceiling: 8000 feet AGL
Clouds: scattered clouds at 1000 feet AGL
scattered clouds at 1200 feet AGL
few clouds at 2500 feet AGL
broken clouds at 8000 feet AGL
Weather: BR  (mist)

METAR text: VOBL 180330Z 27010KT 4000 BR SCT010 SCT012 FEW025CB BKN080 22/22 Q1015 NOSIG
Conditions at: VOBL (BENGALURU , IN) observed 0330 UTC 18 August 2019
Temperature: 22.0°C (72°F)
Dewpoint: 22.0°C (72°F) [RH = 100%]
Pressure (altimeter): 29.97 inches Hg (1015.0 mb)
Winds: from the W (270 degrees) at 12 MPH (10 knots; 5.1 m/s)
Visibility: 2.49 miles (4.01 km)
Ceiling: 8000 feet AGL
Clouds: scattered clouds at 1000 feet AGL
scattered clouds at 1200 feet AGL
few clouds at 2500 feet AGL
broken clouds at 8000 feet AGL
Weather: BR  (mist)

METAR text: VOBL 180300Z 27009KT 4000 BR SCT010 SCT012 FEW025CB BKN080 22/22 Q1014 NOSIG
Conditions at: VOBL (BENGALURU , IN) observed 0300 UTC 18 August 2019
Temperature: 22.0°C (72°F)
Dewpoint: 22.0°C (72°F) [RH = 100%]
Pressure (altimeter): 29.94 inches Hg (1014.0 mb)
Winds: from the W (270 degrees) at 10 MPH (9 knots; 4.6 m/s)
Visibility: 2.49 miles (4.01 km)
Ceiling: 8000 feet AGL
Clouds: scattered clouds at 1000 feet AGL
scattered clouds at 1200 feet AGL
few clouds at 2500 feet AGL
broken clouds at 8000 feet AGL
Weather: BR  (mist)

METAR text: VOBL 180230Z 27008KT 4000 BR SCT010 SCT012 FEW025CB BKN080 21/21 Q1014 TEMPO 3000 RA
Conditions at: VOBL (BENGALURU , IN) observed 0230 UTC 18 August 2019
Temperature: 21.0°C (70°F)
Dewpoint: 21.0°C (70°F) [RH = 100%]
Pressure (altimeter): 29.94 inches Hg (1014.0 mb)
Winds: from the W (270 degrees) at 9 MPH (8 knots; 4.1 m/s)
Visibility: 2.49 miles (4.01 km)
Ceiling: 8000 feet AGL
Clouds: scattered clouds at 1000 feet AGL
scattered clouds at 1200 feet AGL
few clouds at 2500 feet AGL
broken clouds at 8000 feet AGL
Weather: BR  (mist)

METAR text: VOBL 180200Z 26008KT 4000 BR SCT010 SCT012 FEW025CB BKN080 21/21 Q1013 TEMPO 3000 RA
Conditions at: VOBL (BENGALURU , IN) observed 0200 UTC 18 August 2019
Temperature: 21.0°C (70°F)
Dewpoint: 21.0°C (70°F) [RH = 100%]
Pressure (altimeter): 29.91 inches Hg (1013.0 mb)
Winds: from the W (260 degrees) at 9 MPH (8 knots; 4.1 m/s)
Visibility: 2.49 miles (4.01 km)
Ceiling: 8000 feet AGL
Clouds: scattered clouds at 1000 feet AGL
scattered clouds at 1200 feet AGL
few clouds at 2500 feet AGL
broken clouds at 8000 feet AGL
Weather: BR  (mist)

METAR text: VOBL 180130Z 26010KT 4000 BR SCT010 SCT012 FEW025CB BKN080 21/21 Q1013 NOSIG
Conditions at: VOBL (BENGALURU , IN) observed 0130 UTC 18 August 2019
Temperature: 21.0°C (70°F)
Dewpoint: 21.0°C (70°F) [RH = 100%]
Pressure (altimeter): 29.91 inches Hg (1013.0 mb)
Winds: from the W (260 degrees) at 12 MPH (10 knots; 5.1 m/s)
Visibility: 2.49 miles (4.01 km)
Ceiling: 8000 feet AGL
Clouds: scattered clouds at 1000 feet AGL
scattered clouds at 1200 feet AGL
few clouds at 2500 feet AGL
broken clouds at 8000 feet AGL
Weather: BR  (mist)

METAR text: VOBL 180100Z 27009KT 4000 BR SCT010 SCT012 FEW025CB BKN080 21/21 Q1013 NOSIG
Conditions at: VOBL (BENGALURU , IN) observed 0100 UTC 18 August 2019
Temperature: 21.0°C (70°F)
Dewpoint: 21.0°C (70°F) [RH = 100%]
Pressure (altimeter): 29.91 inches Hg (1013.0 mb)
Winds: from the W (270 degrees) at 10 MPH (9 knots; 4.6 m/s)
Visibility: 2.49 miles (4.01 km)
Ceiling: 8000 feet AGL
Clouds: scattered clouds at 1000 feet AGL
scattered clouds at 1200 feet AGL
few clouds at 2500 feet AGL
broken clouds at 8000 feet AGL
Weather: BR  (mist)

METAR text: VOBL 180030Z 28007KT 4000 BR SCT010 SCT012 FEW025CB BKN080 21/21 Q1013 NOSIG
Conditions at: VOBL (BENGALURU , IN) observed 0030 UTC 18 August 2019
Temperature: 21.0°C (70°F)
Dewpoint: 21.0°C (70°F) [RH = 100%]
Pressure (altimeter): 29.91 inches Hg (1013.0 mb)
Winds: from the W (280 degrees) at 8 MPH (7 knots; 3.6 m/s)
Visibility: 2.49 miles (4.01 km)
Ceiling: 8000 feet AGL
Clouds: scattered clouds at 1000 feet AGL
scattered clouds at 1200 feet AGL
few clouds at 2500 feet AGL
broken clouds at 8000 feet AGL
Weather: BR  (mist)

METAR text: VOBL 180000Z 28006KT 4000 DZ SCT008 SCT012 FEW025CB BKN080 21/21 Q1013 NOSIG
Conditions at: VOBL (BENGALURU , IN) observed 0000 UTC 18 August 2019
Temperature: 21.0°C (70°F)
Dewpoint: 21.0°C (70°F) [RH = 100%]
Pressure (altimeter): 29.91 inches Hg (1013.0 mb)
Winds: from the W (280 degrees) at 7 MPH (6 knots; 3.1 m/s)
Visibility: 2.49 miles (4.01 km)
Ceiling: 8000 feet AGL
Clouds: scattered clouds at 800 feet AGL
scattered clouds at 1200 feet AGL
few clouds at 2500 feet AGL
broken clouds at 8000 feet AGL
Weather: DZ  (moderate drizzle)

METAR text: VOBL 172330Z 28007KT 4000 BR SCT008 SCT012 FEW025CB BKN080 21/21 Q1012 NOSIG
Conditions at: VOBL (BENGALURU , IN) observed 2330 UTC 17 August 2019
Temperature: 21.0°C (70°F)
Dewpoint: 21.0°C (70°F) [RH = 100%]
Pressure (altimeter): 29.88 inches Hg (1012.0 mb)
Winds: from the W (280 degrees) at 8 MPH (7 knots; 3.6 m/s)
Visibility: 2.49 miles (4.01 km)
Ceiling: 8000 feet AGL
Clouds: scattered clouds at 800 feet AGL
scattered clouds at 1200 feet AGL
few clouds at 2500 feet AGL
broken clouds at 8000 feet AGL
Weather: BR  (mist)

METAR text: VOBL 172300Z 28009KT 4000 BR SCT008 SCT012 FEW025CB BKN080 21/21 Q1012 NOSIG
Conditions at: VOBL (BENGALURU , IN) observed 2300 UTC 17 August 2019
Temperature: 21.0°C (70°F)
Dewpoint: 21.0°C (70°F) [RH = 100%]
Pressure (altimeter): 29.88 inches Hg (1012.0 mb)
Winds: from the W (280 degrees) at 10 MPH (9 knots; 4.6 m/s)
Visibility: 2.49 miles (4.01 km)
Ceiling: 8000 feet AGL
Clouds: scattered clouds at 800 feet AGL
scattered clouds at 1200 feet AGL
few clouds at 2500 feet AGL
broken clouds at 8000 feet AGL
Weather: BR  (mist)

METAR text: VOBL 172230Z 27009KT 3000 DZ SCT008 SCT012 FEW025CB BKN080 21/21 Q1012 NOSIG
Conditions at: VOBL (BENGALURU , IN) observed 2230 UTC 17 August 2019
Temperature: 21.0°C (70°F)
Dewpoint: 21.0°C (70°F) [RH = 100%]
Pressure (altimeter): 29.88 inches Hg (1012.0 mb)
Winds: from the W (270 degrees) at 10 MPH (9 knots; 4.6 m/s)
Visibility: 1.86 miles (2.99 km)
Ceiling: 8000 feet AGL
Clouds: scattered clouds at 800 feet AGL
scattered clouds at 1200 feet AGL
few clouds at 2500 feet AGL
broken clouds at 8000 feet AGL
Weather: DZ  (moderate drizzle)

METAR text: VOBL 172200Z 27009KT 3000 RA SCT008 SCT012 FEW025CB BKN080 21/21 Q1012 TEMPO 2000 RA
Conditions at: VOBL (BENGALURU , IN) observed 2200 UTC 17 August 2019
Temperature: 21.0°C (70°F)
Dewpoint: 21.0°C (70°F) [RH = 100%]
Pressure (altimeter): 29.88 inches Hg (1012.0 mb)
Winds: from the W (270 degrees) at 10 MPH (9 knots; 4.6 m/s)
Visibility: 1.86 miles (2.99 km)
Ceiling: 8000 feet AGL
Clouds: scattered clouds at 800 feet AGL
scattered clouds at 1200 feet AGL
few clouds at 2500 feet AGL
broken clouds at 8000 feet AGL
Weather: RA  (moderate rain)

METAR text: VOBL 172130Z 27009KT 3000 RA SCT008 SCT012 FEW025CB BKN080 21/21 Q1012 TEMPO 2000 RA
Conditions at: VOBL (BENGALURU , IN) observed 2130 UTC 17 August 2019
Temperature: 21.0°C (70°F)
Dewpoint: 21.0°C (70°F) [RH = 100%]
Pressure (altimeter): 29.88 inches Hg (1012.0 mb)
Winds: from the W (270 degrees) at 10 MPH (9 knots; 4.6 m/s)
Visibility: 1.86 miles (2.99 km)
Ceiling: 8000 feet AGL
Clouds: scattered clouds at 800 feet AGL
scattered clouds at 1200 feet AGL
few clouds at 2500 feet AGL
broken clouds at 8000 feet AGL
Weather: RA  (moderate rain)

METAR text: VOBL 172100Z 29010KT 4000 RA SCT008 SCT012 FEW025CB BKN080 21/21 Q1012 TEMPO 3000 RA
Conditions at: VOBL (BENGALURU , IN) observed 2100 UTC 17 August 2019
Temperature: 21.0°C (70°F)
Dewpoint: 21.0°C (70°F) [RH = 100%]
Pressure (altimeter): 29.88 inches Hg (1012.0 mb)
Winds: from the WNW (290 degrees) at 12 MPH (10 knots; 5.1 m/s)
Visibility: 2.49 miles (4.01 km)
Ceiling: 8000 feet AGL
Clouds: scattered clouds at 800 feet AGL
scattered clouds at 1200 feet AGL
few clouds at 2500 feet AGL
broken clouds at 8000 feet AGL
Weather: RA  (moderate rain)

METAR text: VOBL 172030Z 29009KT 4000 RA SCT008 SCT012 FEW025CB BKN080 21/21 Q1012 TEMPO 3000 RA
Conditions at: VOBL (BENGALURU , IN) observed 2030 UTC 17 August 2019
Temperature: 21.0°C (70°F)
Dewpoint: 21.0°C (70°F) [RH = 100%]
Pressure (altimeter): 29.88 inches Hg (1012.0 mb)
Winds: from the WNW (290 degrees) at 10 MPH (9 knots; 4.6 m/s)
Visibility: 2.49 miles (4.01 km)
Ceiling: 8000 feet AGL
Clouds: scattered clouds at 800 feet AGL
scattered clouds at 1200 feet AGL
few clouds at 2500 feet AGL
broken clouds at 8000 feet AGL
Weather: RA  (moderate rain)

METAR text: VOBL 172000Z 28012KT 4000 RA FEW010 SCT012 FEW025CB BKN080 21/21 Q1012 TEMPO 3000 RA
Conditions at: VOBL (BENGALURU , IN) observed 2000 UTC 17 August 2019
Temperature: 21.0°C (70°F)
Dewpoint: 21.0°C (70°F) [RH = 100%]
Pressure (altimeter): 29.88 inches Hg (1012.0 mb)
Winds: from the W (280 degrees) at 14 MPH (12 knots; 6.2 m/s)
Visibility: 2.49 miles (4.01 km)
Ceiling: 8000 feet AGL
Clouds: few clouds at 1000 feet AGL
scattered clouds at 1200 feet AGL
few clouds at 2500 feet AGL
broken clouds at 8000 feet AGL
Weather: RA  (moderate rain)

METAR text: VOBL 171930Z 28009KT 5000 RA FEW010 SCT012 FEW025CB BKN080 22/22 Q1013 TEMPO 4000 RA
Conditions at: VOBL (BENGALURU , IN) observed 1930 UTC 17 August 2019
Temperature: 22.0°C (72°F)
Dewpoint: 22.0°C (72°F) [RH = 100%]
Pressure (altimeter): 29.91 inches Hg (1013.0 mb)
Winds: from the W (280 degrees) at 10 MPH (9 knots; 4.6 m/s)
Visibility: 3 miles ( 5 km)
Ceiling: 8000 feet AGL
Clouds: few clouds at 1000 feet AGL
scattered clouds at 1200 feet AGL
few clouds at 2500 feet AGL
broken clouds at 8000 feet AGL
Weather: RA  (moderate rain)

METAR text: VOBL 171900Z 26010KT 6000 FEW010 SCT012 FEW025CB BKN080 22/22 Q1013 NOSIG
Conditions at: VOBL (BENGALURU , IN) observed 1900 UTC 17 August 2019
Temperature: 22.0°C (72°F)
Dewpoint: 22.0°C (72°F) [RH = 100%]
Pressure (altimeter): 29.91 inches Hg (1013.0 mb)
Winds: from the W (260 degrees) at 12 MPH (10 knots; 5.1 m/s)
Visibility: 4 miles ( 6 km)
Ceiling: 8000 feet AGL
Clouds: few clouds at 1000 feet AGL
scattered clouds at 1200 feet AGL
few clouds at 2500 feet AGL
broken clouds at 8000 feet AGL
Weather: no significant weather observed at this time

METAR text: VOBL 171830Z 25008KT 6000 FEW010 SCT012 FEW025CB BKN080 22/22 Q1013 NOSIG
Conditions at: VOBL (BENGALURU , IN) observed 1830 UTC 17 August 2019
Temperature: 22.0°C (72°F)
Dewpoint: 22.0°C (72°F) [RH = 100%]
Pressure (altimeter): 29.91 inches Hg (1013.0 mb)
Winds: from the WSW (250 degrees) at 9 MPH (8 knots; 4.1 m/s)
Visibility: 4 miles ( 6 km)
Ceiling: 8000 feet AGL
Clouds: few clouds at 1000 feet AGL
scattered clouds at 1200 feet AGL
few clouds at 2500 feet AGL
broken clouds at 8000 feet AGL
Weather: no significant weather observed at this time

METAR text: VOBL 171800Z 27009KT 4000 DZ FEW010 SCT012 BKN080 22/22 Q1014 BECMG 6000
Conditions at: VOBL (BENGALURU , IN) observed 1800 UTC 17 August 2019
Temperature: 22.0°C (72°F)
Dewpoint: 22.0°C (72°F) [RH = 100%]
Pressure (altimeter): 29.94 inches Hg (1014.0 mb)
Winds: from the W (270 degrees) at 10 MPH (9 knots; 4.6 m/s)
Visibility: 2.49 miles (4.01 km)
Ceiling: 8000 feet AGL
Clouds: few clouds at 1000 feet AGL
scattered clouds at 1200 feet AGL
broken clouds at 8000 feet AGL
Weather: DZ  (moderate drizzle)

METAR text: VOBL 171730Z 26010KT 3000 RA FEW010 SCT012 BKN080 22/22 Q1014 BECMG 6000
Conditions at: VOBL (BENGALURU , IN) observed 1730 UTC 17 August 2019
Temperature: 22.0°C (72°F)
Dewpoint: 22.0°C (72°F) [RH = 100%]
Pressure (altimeter): 29.94 inches Hg (1014.0 mb)
Winds: from the W (260 degrees) at 12 MPH (10 knots; 5.1 m/s)
Visibility: 1.86 miles (2.99 km)
Ceiling: 8000 feet AGL
Clouds: few clouds at 1000 feet AGL
scattered clouds at 1200 feet AGL
broken clouds at 8000 feet AGL
Weather: RA  (moderate rain)

METAR text: VOBL 171700Z 27009KT 1500 R27/P2000 R09/P2000 RA FEW010 SCT012 BKN080 22/22 Q1014 NOSIG
Conditions at: VOBL (BENGALURU , IN) observed 1700 UTC 17 August 2019
Temperature: 22.0°C (72°F)
Dewpoint: 22.0°C (72°F) [RH = 100%]
Pressure (altimeter): 29.94 inches Hg (1014.0 mb)
Winds: from the W (270 degrees) at 10 MPH (9 knots; 4.6 m/s)
Visibility: 0.93 miles (1.50 km)
Ceiling: 8000 feet AGL
Clouds: few clouds at 1000 feet AGL
scattered clouds at 1200 feet AGL
broken clouds at 8000 feet AGL
Weather: RA  (moderate rain)

METAR text: VOBL 171630Z VRB05KT 3000 RA FEW010 SCT012 BKN080 22/22 Q1014 TEMPO 2000 RA
Conditions at: VOBL (BENGALURU , IN) observed 1630 UTC 17 August 2019
Temperature: 22.0°C (72°F)
Dewpoint: 22.0°C (72°F) [RH = 100%]
Pressure (altimeter): 29.94 inches Hg (1014.0 mb)
Winds: variable direction winds at 6 MPH (5 knots; 2.6 m/s)
Visibility: 1.86 miles (2.99 km)
Ceiling: 8000 feet AGL
Clouds: few clouds at 1000 feet AGL
scattered clouds at 1200 feet AGL
broken clouds at 8000 feet AGL
Weather: RA  (moderate rain)

Forecast for: VOBL (BENGALURU , IN)
Text: TAF VOBL 190200Z 1903/1912 27010KT 6000 SCT012 SCT080
Forecast period: 0300 to 1200 UTC 19 August 2019
Forecast type: FROM: standard forecast or significant change
Winds: from the W (270 degrees) at 12 MPH (10 knots; 5.1 m/s)
Visibility: 4 miles (6 km)
Ceiling: at least 12,000 feet AGL
Clouds: scattered clouds at 1200 feet AGL
scattered clouds at 8000 feet AGL
Weather: no significant weather forecast for this period
Text: TEMPO 1909/1912 4000 RA DZ SCT008 SCT012 FEW025CB BKN080
Forecast period: 0900 to 1200 UTC 19 August 2019
Forecast type: TEMPORARY: The following changes expected for less than half the time period
Visibility: 2.49 miles (4.01 km)
Ceiling: at least 12,000 feet AGL
Clouds: scattered clouds at 800 feet AGL
scattered clouds at 1200 feet AGL
few clouds at 2500 feet AGL
Weather: RA DZ  (moderate rain, moderate drizzle)